Time;durP1;ratioP1;P1;durP2;ratioP2;P2;SDS_P1;SDS_P2;PMS_P1;PMS_P2;Temp;Humidity;BMP_temperature;BMP_pressure;BME280_temperature;BME280_humidity;BME280_pressure;Samples;Min_cycle;Max_cycle;Signal;HPM_P1;HPM_P2
2021/09/25 19:14:51;;;;;;;7.50;6.80;;;17.70;99.90;;;;;;4336566;23;20554;-95
2021/09/25 19:17:18;;;;;;;7.33;6.63;;;17.70;99.90;;;;;;4918592;29;20435;-96
2021/09/25 19:19:47;;;;;;;10.20;6.80;;;17.70;99.90;;;;;;4926341;29;20431;-96
2021/09/25 19:22:22;;;;;;;7.73;7.03;;;17.70;99.90;;;;;;4926298;29;20423;-96
2021/09/25 19:24:51;;;;;;;8.20;7.00;;;17.60;99.90;;;;;;4926278;29;20533;-96
2021/09/25 19:27:18;;;;;;;9.40;6.80;;;17.60;99.90;;;;;;4926406;29;20435;-96
2021/09/25 19:29:54;;;;;;;8.83;8.03;;;17.60;99.90;;;;;;4926184;29;20430;-96
2021/09/25 19:32:21;;;;;;;7.93;7.13;;;17.50;99.90;;;;;;4926056;29;20438;-96
2021/09/25 19:34:54;;;;;;;8.07;7.27;;;17.50;99.90;;;;;;4926006;29;20461;-95
2021/09/25 19:37:22;;;;;;;6.60;6.00;;;17.50;99.90;;;;;;4926163;29;20419;-96
2021/09/25 19:39:52;;;;;;;8.00;7.30;;;17.40;99.90;;;;;;4925883;29;20438;-96
2021/09/25 19:42:20;;;;;;;7.43;6.63;;;17.40;99.90;;;;;;4925870;29;20439;-95
2021/09/25 19:44:47;;;;;;;6.83;6.23;;;17.40;99.90;;;;;;4925944;29;20427;-96
2021/09/25 19:47:18;;;;;;;7.43;6.63;;;17.30;99.90;;;;;;4925992;29;20442;-95
2021/09/25 19:49:45;;;;;;;6.80;6.20;;;17.30;99.90;;;;;;4925780;29;20476;-96
2021/09/25 19:52:15;;;;;;;7.27;6.53;;;17.20;99.90;;;;;;4925736;29;20439;-96
2021/09/25 19:54:42;;;;;;;7.67;6.03;;;17.10;99.90;;;;;;4925688;29;20469;-96
2021/09/25 19:57:09;;;;;;;6.30;5.70;;;17.10;99.90;;;;;;4924542;29;20447;-96
2021/09/25 19:59:36;;;;;;;6.77;6.10;;;17.10;99.90;;;;;;4924332;29;20479;-96
2021/09/25 20:02:06;;;;;;;6.20;5.60;;;17.10;99.90;;;;;;4924527;29;20513;-96
2021/09/25 20:04:35;;;;;;;6.63;6.03;;;17.00;99.90;;;;;;4924176;29;20474;-95
2021/09/25 20:07:05;;;;;;;6.70;5.63;;;17.00;99.90;;;;;;4924280;29;20481;-96
2021/09/25 20:09:33;;;;;;;9.93;6.87;;;16.90;99.90;;;;;;4924245;29;20493;-96
2021/09/25 20:12:15;;;;;;;7.10;5.50;;;16.90;99.90;;;;;;4924186;29;20483;-96
2021/09/25 20:14:44;;;;;;;6.30;5.70;;;16.80;99.90;;;;;;4924082;29;20462;-96
2021/09/25 20:17:13;;;;;;;6.87;6.27;;;16.80;99.90;;;;;;4923981;28;20447;-96
2021/09/25 20:19:47;;;;;;;7.17;5.67;;;16.80;99.90;;;;;;4924171;29;20474;-96
2021/09/25 20:22:16;;;;;;;6.00;5.50;;;16.80;99.90;;;;;;4923931;29;20483;-96
2021/09/25 20:24:45;;;;;;;7.23;5.93;;;16.70;99.90;;;;;;4923233;29;20463;-96
2021/09/25 20:27:15;;;;;;;6.80;5.97;;;16.70;99.90;;;;;;4923946;29;20454;-96
2021/09/25 20:29:44;;;;;;;6.63;6.03;;;16.70;99.90;;;;;;4923958;29;20483;-96
2021/09/25 20:32:12;;;;;;;6.73;6.13;;;16.70;99.90;;;;;;4923771;29;20446;-96
2021/09/25 20:34:39;;;;;;;5.97;5.47;;;16.70;99.90;;;;;;4923736;29;20482;-96
2021/09/25 20:37:10;;;;;;;5.80;5.30;;;16.70;99.90;;;;;;4923811;29;20462;-96
2021/09/25 20:39:38;;;;;;;5.80;5.00;;;16.60;99.90;;;;;;4923721;29;20470;-96
2021/09/25 20:42:06;;;;;;;6.03;5.50;;;16.60;99.90;;;;;;4923636;29;20447;-96
2021/09/25 20:44:33;;;;;;;6.43;5.27;;;16.60;99.90;;;;;;4923364;29;20451;-95
2021/09/25 20:47:01;;;;;;;5.67;5.17;;;16.60;99.90;;;;;;4923583;29;20451;-96
2021/09/25 20:49:29;;;;;;;6.50;5.70;;;16.60;99.90;;;;;;4923546;29;20534;-96
2021/09/25 20:51:56;;;;;;;5.90;5.30;;;16.50;99.90;;;;;;4923526;29;20503;-96
2021/09/25 20:54:31;;;;;;;5.83;5.33;;;16.50;99.90;;;;;;4923278;29;20474;-96
2021/09/25 20:57:00;;;;;;;6.27;5.67;;;16.50;99.90;;;;;;4923608;29;20447;-96
2021/09/25 20:59:27;;;;;;;6.10;5.30;;;16.50;99.90;;;;;;4923347;29;20475;-96
2021/09/25 21:01:54;;;;;;;5.60;5.10;;;16.50;99.90;;;;;;4923364;29;20518;-95
2021/09/25 21:04:22;;;;;;;6.37;5.87;;;16.50;99.90;;;;;;4923016;29;20449;-96
2021/09/25 21:06:49;;;;;;;5.40;4.87;;;16.50;99.90;;;;;;4923306;29;20466;-96
2021/09/25 21:09:24;;;;;;;5.60;5.10;;;16.40;99.90;;;;;;4923071;29;20470;-96
2021/09/25 21:11:52;;;;;;;6.10;5.50;;;16.40;99.90;;;;;;4923133;29;20450;-95
2021/09/25 21:14:22;;;;;;;5.83;5.33;;;16.40;99.90;;;;;;4922691;29;20478;-96
2021/09/25 21:16:55;;;;;;;5.73;5.13;;;16.30;99.90;;;;;;4923065;29;20526;-96
2021/09/25 21:19:22;;;;;;;6.00;5.37;;;16.30;99.90;;;;;;4922991;29;20470;-96
2021/09/25 21:21:49;;;;;;;6.20;5.60;;;16.30;99.90;;;;;;4922984;29;20480;-95
2021/09/25 21:24:16;;;;;;;6.10;5.47;;;16.20;99.90;;;;;;4922620;29;20454;-95
2021/09/25 21:26:48;;;;;;;5.80;5.30;;;16.20;99.90;;;;;;4922894;29;20471;-96
2021/09/25 21:29:15;;;;;;;7.50;5.50;;;16.20;99.90;;;;;;4922683;29;20502;-95
2021/09/25 21:31:46;;;;;;;6.87;6.17;;;16.10;99.90;;;;;;4922696;29;20447;-96
2021/09/25 21:34:13;;;;;;;6.50;5.50;;;16.10;99.90;;;;;;4922406;29;20487;-96
2021/09/25 21:36:40;;;;;;;6.03;5.13;;;16.10;99.90;;;;;;4922681;29;20621;-96
2021/09/25 21:39:09;;;;;;;6.47;5.97;;;16.10;99.90;;;;;;4922646;29;20522;-96
2021/09/25 21:41:36;;;;;;;7.00;5.83;;;16.10;99.90;;;;;;4922533;28;20487;-96
2021/09/25 21:44:05;;;;;;;6.07;5.47;;;16.10;99.90;;;;;;4922228;29;20466;-96
2021/09/25 21:46:33;;;;;;;6.83;6.13;;;16.10;99.90;;;;;;4922581;29;20443;-94
2021/09/25 21:49:01;;;;;;;6.20;5.60;;;16.10;99.90;;;;;;4922472;29;20462;-96
2021/09/25 21:51:29;;;;;;;6.27;5.67;;;16.10;99.90;;;;;;4922487;29;20449;-96
2021/09/25 21:53:56;;;;;;;6.53;5.93;;;16.10;99.90;;;;;;4922147;29;20474;-94
2021/09/25 21:56:24;;;;;;;7.60;6.30;;;16.00;99.90;;;;;;4922310;29;20451;-95
2021/09/25 21:58:53;;;;;;;6.33;5.73;;;16.00;99.90;;;;;;4922093;29;20495;-95
2021/09/25 22:01:24;;;;;;;6.00;5.40;;;16.00;99.90;;;;;;4922223;29;20466;-96
2021/09/25 22:03:52;;;;;;;7.93;5.70;;;16.00;99.90;;;;;;4921972;29;20451;-96
2021/09/25 22:06:23;;;;;;;7.20;6.50;;;15.90;99.90;;;;;;4922222;29;20469;-96
2021/09/25 22:08:52;;;;;;;7.63;5.73;;;15.90;99.90;;;;;;4922148;29;20470;-96
2021/09/25 22:11:20;;;;;;;6.53;6.00;;;15.80;99.90;;;;;;4922039;29;20466;-95
2021/09/25 22:13:51;;;;;;;7.40;6.63;;;15.90;99.90;;;;;;4921661;29;20447;-96
2021/09/25 22:16:21;;;;;;;7.20;6.03;;;15.90;99.90;;;;;;4921774;29;20450;-96
2021/09/25 22:18:49;;;;;;;6.90;6.17;;;15.90;99.90;;;;;;4921964;29;20447;-95
2021/09/25 22:21:19;;;;;;;6.90;6.20;;;15.90;99.90;;;;;;4922015;29;20438;-96
2021/09/25 22:23:48;;;;;;;9.93;6.50;;;15.90;99.90;;;;;;4921805;29;20485;-95
2021/09/25 22:26:15;;;;;;;6.93;5.83;;;15.90;99.90;;;;;;4921991;29;20459;-96
2021/09/25 22:28:42;;;;;;;7.10;6.47;;;15.90;99.90;;;;;;4921800;29;20453;-96
2021/09/25 22:31:09;;;;;;;7.27;6.57;;;15.90;99.90;;;;;;4921882;29;20447;-96
2021/09/25 22:33:39;;;;;;;6.57;5.97;;;15.90;99.90;;;;;;4921624;29;20447;-96
2021/09/25 22:36:10;;;;;;;7.00;6.27;;;15.90;99.90;;;;;;4921682;29;20470;-95
2021/09/25 22:38:41;;;;;;;7.60;6.00;;;15.90;99.90;;;;;;4921655;29;20478;-96
2021/09/25 22:41:10;;;;;;;7.03;6.00;;;15.90;99.90;;;;;;4921713;29;20521;-96
2021/09/25 22:43:38;;;;;;;6.97;6.03;;;15.90;99.90;;;;;;4921609;29;20451;-96
2021/09/25 22:46:07;;;;;;;6.60;5.87;;;15.90;99.90;;;;;;4921511;29;20439;-96
2021/09/25 22:48:34;;;;;;;6.83;6.00;;;15.90;99.90;;;;;;4921540;29;20450;-96
2021/09/25 22:51:04;;;;;;;7.13;6.43;;;15.90;99.90;;;;;;4921694;29;20461;-96
2021/09/25 22:53:31;;;;;;;6.77;5.70;;;16.00;99.90;;;;;;4921416;29;20478;-96
2021/09/25 22:55:59;;;;;;;6.07;5.57;;;16.00;99.90;;;;;;4921607;29;20462;-96
2021/09/25 22:58:26;;;;;;;7.50;6.73;;;16.10;99.90;;;;;;4921649;29;20482;-96
2021/09/25 23:00:55;;;;;;;7.83;6.33;;;16.10;99.90;;;;;;4921601;29;20451;-95
2021/09/25 23:03:22;;;;;;;6.80;5.97;;;16.10;99.90;;;;;;4921227;29;20450;-96
2021/09/25 23:05:55;;;;;;;6.73;5.93;;;16.10;99.90;;;;;;4921715;29;20466;-95
2021/09/25 23:08:24;;;;;;;9.00;6.00;;;16.10;99.90;;;;;;4921455;29;20446;-95
2021/09/25 23:10:51;;;;;;;6.70;6.00;;;16.10;99.90;;;;;;4921540;29;20474;-95
2021/09/25 23:13:21;;;;;;;6.80;6.10;;;16.10;99.90;;;;;;4921227;29;20450;-96
2021/09/25 23:15:49;;;;;;;7.30;6.60;;;16.10;99.90;;;;;;4921314;29;20549;-96
2021/09/25 23:18:16;;;;;;;6.80;6.10;;;16.10;99.90;;;;;;4921466;29;20482;-96
2021/09/25 23:20:43;;;;;;;7.20;6.50;;;16.20;99.90;;;;;;4921403;28;20463;-96
2021/09/25 23:23:10;;;;;;;6.97;5.90;;;16.30;99.90;;;;;;4921176;29;20475;-96
2021/09/25 23:25:46;;;;;;;6.10;5.50;;;16.40;99.90;;;;;;4921413;29;20526;-96
2021/09/25 23:28:14;;;;;;;6.13;5.63;;;16.50;99.90;;;;;;4921435;29;20449;-96
2021/09/25 23:30:43;;;;;;;5.80;5.27;;;16.70;99.90;;;;;;4921168;29;20459;-96
2021/09/25 23:33:11;;;;;;;6.57;5.97;;;16.80;99.90;;;;;;4920961;29;20458;-95
2021/09/25 23:35:38;;;;;;;7.00;6.30;;;16.90;99.90;;;;;;4921167;29;20466;-96
2021/09/25 23:38:07;;;;;;;6.67;5.97;;;16.90;99.90;;;;;;4921311;29;20453;-96
2021/09/25 23:40:38;;;;;;;6.53;5.93;;;17.00;99.90;;;;;;4921086;29;20534;-96
2021/09/25 23:43:05;;;;;;;6.40;5.80;;;17.00;99.90;;;;;;4920987;29;20455;-95
2021/09/25 23:45:33;;;;;;;6.47;5.87;;;17.10;99.90;;;;;;4921242;29;20524;-96
2021/09/25 23:48:01;;;;;;;5.77;5.27;;;17.20;99.90;;;;;;4921234;29;20456;-96
2021/09/25 23:50:30;;;;;;;6.47;5.77;;;17.30;99.90;;;;;;4921085;29;20478;-96
2021/09/25 23:53:05;;;;;;;6.60;5.70;;;17.40;99.90;;;;;;4920905;29;20447;-96
2021/09/25 23:55:35;;;;;;;5.97;5.37;;;17.40;99.90;;;;;;4921059;29;20501;-96
2021/09/25 23:58:05;;;;;;;7.13;6.20;;;17.40;99.90;;;;;;4921259;29;20450;-96
